createdAt,value
2018-02-24T00:00:22.292Z,0.40
2018-02-24T00:03:23.511Z,0.30
2018-02-24T00:06:24.760Z,0.30
2018-02-24T00:09:25.961Z,0.40
2018-02-24T00:12:27.163Z,0.40
2018-02-24T00:15:28.350Z,0.30
2018-02-24T00:18:29.621Z,0.30
2018-02-24T00:21:30.893Z,0.30
2018-02-24T00:24:32.116Z,0.20
2018-02-24T00:27:33.310Z,0.00
2018-02-24T00:30:34.525Z,0.10
2018-02-24T00:33:35.718Z,-0.10
2018-02-24T00:36:37.685Z,0.10
2018-02-24T00:39:39.617Z,0.10
2018-02-24T00:42:40.834Z,0.10
2018-02-24T00:45:42.044Z,0.10
2018-02-24T00:48:43.292Z,0.10
2018-02-24T00:51:44.500Z,-0.10
2018-02-24T00:54:45.717Z,0.00
2018-02-24T00:57:46.960Z,0.10
2018-02-24T01:00:48.266Z,0.10
2018-02-24T01:03:49.484Z,0.10
2018-02-24T01:06:50.689Z,-0.10
2018-02-24T01:09:51.901Z,0.00
2018-02-24T01:12:53.128Z,0.00
2018-02-24T01:15:54.496Z,-0.30
2018-02-24T01:18:56.597Z,-0.10
2018-02-24T01:21:58.529Z,-0.10
2018-02-24T01:24:59.720Z,-0.10
2018-02-24T01:28:00.956Z,-0.10
2018-02-24T01:31:09.084Z,-0.20
2018-02-24T01:34:10.286Z,-0.10
2018-02-24T01:37:12.241Z,-0.10
2018-02-24T01:40:13.440Z,-0.10
2018-02-24T01:43:15.389Z,-0.20
2018-02-24T01:46:16.597Z,-0.20
2018-02-24T01:49:17.793Z,-0.20
2018-02-24T01:52:18.993Z,-0.20
2018-02-24T01:55:20.968Z,-0.30
2018-02-24T01:58:22.168Z,-0.40
2018-02-24T02:01:23.433Z,-0.30
2018-02-24T02:04:24.627Z,-0.30
2018-02-24T02:07:25.857Z,-0.40
2018-02-24T02:10:27.062Z,-0.30
2018-02-24T02:13:28.539Z,-0.20
2018-02-24T02:16:29.982Z,-0.30
2018-02-24T02:19:32.096Z,-0.30
2018-02-24T02:22:33.529Z,-0.40
2018-02-24T02:25:34.961Z,-0.40
2018-02-24T02:28:36.193Z,-0.30
2018-02-24T02:31:37.391Z,-0.30
2018-02-24T02:34:38.593Z,-0.20
2018-02-24T02:37:39.801Z,-0.40
2018-02-24T02:40:41.725Z,-0.40
2018-02-24T02:43:42.948Z,-0.40
2018-02-24T02:46:44.154Z,-0.30
2018-02-24T02:49:45.400Z,-0.20
2018-02-24T02:52:46.620Z,-0.30
2018-02-24T02:55:48.580Z,-0.40
2018-02-24T02:58:49.823Z,-0.40
2018-02-24T03:01:51.843Z,-0.50
2018-02-24T03:04:53.800Z,-0.70
2018-02-24T03:07:54.999Z,-0.70
2018-02-24T03:10:56.209Z,-0.60
2018-02-24T03:13:57.425Z,-0.50
2018-02-24T03:16:58.636Z,-0.60
2018-02-24T03:19:59.852Z,-0.60
2018-02-24T03:23:01.069Z,-0.50
2018-02-24T03:26:02.290Z,-0.50
2018-02-24T03:29:03.513Z,-0.50
2018-02-24T03:32:04.740Z,-0.60
2018-02-24T03:35:05.941Z,-0.60
2018-02-24T03:38:07.885Z,-0.40
2018-02-24T03:41:09.116Z,-0.40
2018-02-24T03:44:10.380Z,-0.40
2018-02-24T03:47:11.569Z,-0.30
2018-02-24T03:50:12.808Z,-0.50
2018-02-24T03:53:14.025Z,-0.50
2018-02-24T03:56:15.247Z,-0.60
2018-02-24T03:59:16.470Z,-0.60
2018-02-24T04:02:18.457Z,-0.70
2018-02-24T04:05:19.718Z,-0.90
2018-02-24T04:08:20.924Z,-0.70
2018-02-24T04:11:22.201Z,-0.70
2018-02-24T04:14:23.420Z,-0.90
2018-02-24T04:17:24.642Z,-0.80
2018-02-24T04:20:25.836Z,-1.00
2018-02-24T04:23:27.116Z,-0.70
2018-02-24T04:26:28.300Z,-0.90
2018-02-24T04:29:29.525Z,-0.90
2018-02-24T04:32:30.732Z,-0.80
2018-02-24T04:35:31.921Z,-0.70
2018-02-24T04:38:33.133Z,-0.80
2018-02-24T04:41:34.326Z,-0.70
2018-02-24T04:44:35.544Z,-0.80
2018-02-24T04:47:36.767Z,-0.80
2018-02-24T04:50:37.958Z,-0.90
2018-02-24T04:53:39.169Z,-0.90
2018-02-24T04:56:40.396Z,-0.80
2018-02-24T04:59:41.625Z,-0.80
2018-02-24T05:02:43.618Z,-0.80
2018-02-24T05:05:44.945Z,-0.90
2018-02-24T05:08:46.168Z,-0.80
2018-02-24T05:11:47.383Z,-0.80
2018-02-24T05:14:48.624Z,-0.80
2018-02-24T05:17:49.800Z,-0.80
2018-02-24T05:20:51.020Z,-0.90
2018-02-24T05:23:52.237Z,-0.80
2018-02-24T05:26:54.217Z,-0.70
2018-02-24T05:29:56.163Z,-0.90
2018-02-24T05:32:57.394Z,-0.90
2018-02-24T05:35:58.587Z,-1.10
2018-02-24T05:38:59.790Z,-1.10
2018-02-24T05:42:01.736Z,-1.10
2018-02-24T05:45:02.976Z,-1.10
2018-02-24T05:48:04.173Z,-1.10
2018-02-24T05:51:05.383Z,-1.10
2018-02-24T05:54:06.628Z,-1.20
2018-02-24T05:57:08.576Z,-1.20
2018-02-24T06:00:09.830Z,-1.20
2018-02-24T06:03:11.100Z,-1.30
2018-02-24T06:06:12.340Z,-1.30
2018-02-24T06:09:13.528Z,-1.20
2018-02-24T06:12:14.768Z,-1.20
2018-02-24T06:15:15.975Z,-1.20
2018-02-24T06:18:17.916Z,-1.20
2018-02-24T06:21:19.135Z,-1.20
2018-02-24T06:24:20.351Z,-1.20
2018-02-24T06:27:21.633Z,-1.20
2018-02-24T06:30:22.841Z,-1.20
2018-02-24T06:33:24.124Z,-1.20
2018-02-24T06:36:25.402Z,-1.20
2018-02-24T06:39:26.652Z,-1.10
2018-02-24T06:42:27.881Z,-1.10
2018-02-24T06:45:29.120Z,-1.00
2018-02-24T06:48:31.058Z,-0.90
2018-02-24T06:51:33.011Z,-1.00
2018-02-24T06:54:34.377Z,-1.00
2018-02-24T06:57:35.599Z,-1.00
2018-02-24T07:00:37.580Z,-1.00
2018-02-24T07:03:39.575Z,-1.10
2018-02-24T07:06:40.781Z,-1.20
2018-02-24T07:09:42.020Z,-1.20
2018-02-24T07:12:43.213Z,-1.10
2018-02-24T07:15:44.456Z,-1.10
2018-02-24T07:18:45.676Z,-1.10
2018-02-24T07:21:46.924Z,-1.10
2018-02-24T07:24:48.152Z,-1.10
2018-02-24T07:27:49.362Z,-1.00
2018-02-24T07:30:51.313Z,-1.00
2018-02-24T07:33:52.541Z,-1.00
2018-02-24T07:36:53.822Z,-1.00
2018-02-24T07:39:55.056Z,-0.90
2018-02-24T07:42:56.249Z,-1.00
2018-02-24T07:45:57.462Z,-0.80
2018-02-24T07:48:59.412Z,-0.90
2018-02-24T07:52:00.618Z,-0.90
2018-02-24T07:55:01.845Z,-0.90
2018-02-24T07:58:03.090Z,-0.90
2018-02-24T08:01:04.304Z,-0.90
2018-02-24T08:04:05.565Z,-0.80
2018-02-24T08:07:06.838Z,-0.60
2018-02-24T08:10:08.047Z,-0.70
2018-02-24T08:13:09.273Z,-0.70
2018-02-24T08:16:10.498Z,-0.70
2018-02-24T08:19:12.497Z,-0.50
2018-02-24T08:22:13.712Z,-0.60
2018-02-24T08:25:14.922Z,-0.50
2018-02-24T08:28:16.144Z,-0.60
2018-02-24T08:31:17.388Z,-0.70
2018-02-24T08:34:18.609Z,-0.70
2018-02-24T08:37:19.891Z,-0.50
2018-02-24T08:40:21.112Z,-0.40
2018-02-24T08:43:23.061Z,-0.30
2018-02-24T08:46:24.293Z,-0.40
2018-02-24T08:49:25.496Z,-0.30
2018-02-24T08:52:26.760Z,-0.40
2018-02-24T08:55:27.981Z,-0.50
2018-02-24T08:58:29.199Z,-0.30
2018-02-24T09:01:31.153Z,-0.10
2018-02-24T09:04:32.399Z,0.00
2018-02-24T09:07:33.606Z,0.20
2018-02-24T09:10:35.566Z,0.30
2018-02-24T09:13:37.272Z,0.30
2018-02-24T09:16:38.641Z,0.30
2018-02-24T09:19:40.119Z,0.30
2018-02-24T09:22:41.490Z,0.40
2018-02-24T09:25:42.906Z,0.60
2018-02-24T09:28:45.253Z,0.70
2018-02-24T09:31:46.864Z,0.70
2018-02-24T09:34:56.134Z,0.70
2018-02-24T09:37:57.417Z,0.70
2018-02-24T09:40:58.651Z,0.90
2018-02-24T09:43:59.844Z,1.00
2018-02-24T09:47:01.053Z,1.00
2018-02-24T09:50:02.314Z,1.10
2018-02-24T09:53:03.650Z,1.20
2018-02-24T09:56:04.847Z,1.40
2018-02-24T09:59:06.073Z,1.40
2018-02-24T10:02:07.284Z,1.50
2018-02-24T10:05:08.534Z,1.60
2018-02-24T10:08:09.761Z,1.60
2018-02-24T10:11:11.005Z,1.60
2018-02-24T10:14:12.198Z,2.10
2018-02-24T10:17:13.456Z,2.40
2018-02-24T10:20:14.659Z,2.10
2018-02-24T10:23:15.908Z,2.10
2018-02-24T10:26:17.105Z,1.90
2018-02-24T10:29:19.067Z,2.20
2018-02-24T10:32:20.284Z,2.10
2018-02-24T10:35:21.505Z,2.20
2018-02-24T10:38:23.457Z,2.20
2018-02-24T10:41:24.830Z,2.20
2018-02-24T10:44:26.048Z,2.30
2018-02-24T10:47:27.264Z,2.30
2018-02-24T10:50:28.454Z,2.40
2018-02-24T10:53:29.888Z,2.60
2018-02-24T10:56:31.104Z,2.70
2018-02-24T10:59:32.305Z,2.70
2018-02-24T11:02:33.529Z,2.90
2018-02-24T11:05:34.855Z,3.10
2018-02-24T11:08:36.824Z,3.20
2018-02-24T11:11:38.077Z,3.10
2018-02-24T11:14:39.316Z,3.30
2018-02-24T11:17:40.591Z,3.40
2018-02-24T11:20:41.797Z,3.50
2018-02-24T11:23:43.780Z,3.70
2018-02-24T11:26:45.780Z,3.80
2018-02-24T11:29:47.025Z,3.80
2018-02-24T11:32:49.122Z,3.90
2018-02-24T11:35:50.347Z,3.90
2018-02-24T11:38:52.075Z,3.90
2018-02-24T11:41:53.328Z,4.00
2018-02-24T11:44:54.934Z,4.10
2018-02-24T11:47:56.815Z,4.80
2018-02-24T11:50:58.053Z,5.20
2018-02-24T11:53:59.316Z,4.90
2018-02-24T11:57:00.522Z,4.70
2018-02-24T12:00:01.761Z,4.50
2018-02-24T12:03:03.000Z,4.60
2018-02-24T12:06:04.237Z,4.40
2018-02-24T12:09:05.447Z,4.20
2018-02-24T12:12:06.710Z,4.20
2018-02-24T12:15:07.927Z,4.40
2018-02-24T12:18:09.185Z,4.30
2018-02-24T12:21:10.398Z,4.30
2018-02-24T12:24:11.645Z,4.20
2018-02-24T12:27:12.859Z,4.40
2018-02-24T12:30:14.094Z,4.50
2018-02-24T12:33:15.332Z,4.90
2018-02-24T12:36:16.584Z,4.70
2018-02-24T12:39:18.557Z,4.80
2018-02-24T12:42:20.555Z,4.70
2018-02-24T12:45:21.860Z,4.60
2018-02-24T12:48:23.093Z,4.50
2018-02-24T12:51:24.340Z,4.60
2018-02-24T12:54:26.327Z,4.70
2018-02-24T12:57:27.560Z,4.70
2018-02-24T13:00:28.797Z,4.70
2018-02-24T13:03:30.007Z,4.60
2018-02-24T13:06:31.980Z,4.50
2018-02-24T13:09:33.949Z,4.60
2018-02-24T13:12:35.184Z,4.60
2018-02-24T13:15:36.381Z,4.60
2018-02-24T13:18:38.349Z,4.80
2018-02-24T13:21:39.556Z,4.80
2018-02-24T13:24:40.789Z,4.80
2018-02-24T13:27:42.746Z,4.80
2018-02-24T13:30:43.995Z,4.80
2018-02-24T13:33:45.237Z,4.80
2018-02-24T13:36:46.502Z,4.90
2018-02-24T13:39:47.718Z,5.10
2018-02-24T13:42:49.681Z,4.60
2018-02-24T13:45:50.876Z,4.60
2018-02-24T13:48:52.106Z,4.40
2018-02-24T13:51:53.308Z,4.50
2018-02-24T13:54:54.556Z,4.50
2018-02-24T13:57:55.794Z,4.60
2018-02-24T14:00:57.009Z,4.40
2018-02-24T14:03:58.253Z,4.40
2018-02-24T14:06:59.500Z,4.50
2018-02-24T14:10:01.478Z,4.50
2018-02-24T14:13:03.520Z,4.50
2018-02-24T14:16:04.674Z,4.50
2018-02-24T14:19:05.931Z,4.70
2018-02-24T14:22:07.181Z,4.50
2018-02-24T14:25:08.420Z,4.30
2018-02-24T14:28:09.641Z,4.10
2018-02-24T14:31:10.880Z,3.90
2018-02-24T14:34:12.086Z,3.60
2018-02-24T14:37:14.055Z,3.60
2018-02-24T14:40:15.292Z,3.60
2018-02-24T14:43:16.545Z,3.60
2018-02-24T14:46:17.752Z,3.50
2018-02-24T14:49:18.977Z,3.50
2018-02-24T14:52:20.212Z,3.60
2018-02-24T14:55:21.445Z,3.50
2018-02-24T14:58:23.398Z,3.30
2018-02-24T15:01:24.636Z,3.30
2018-02-24T15:04:25.893Z,3.30
2018-02-24T15:07:27.164Z,3.10
2018-02-24T15:10:28.388Z,3.00
2018-02-24T15:13:30.336Z,2.80
2018-02-24T15:16:31.576Z,2.80
2018-02-24T15:19:32.840Z,2.80
2018-02-24T15:22:34.069Z,2.80
2018-02-24T15:25:35.324Z,2.70
2018-02-24T15:28:36.569Z,2.70
2018-02-24T15:31:38.556Z,2.50
2018-02-24T15:34:40.548Z,2.50
2018-02-24T15:37:41.777Z,2.40
2018-02-24T15:40:42.993Z,2.40
2018-02-24T15:43:44.321Z,2.40
2018-02-24T15:46:46.289Z,2.40
2018-02-24T15:49:47.549Z,2.40
2018-02-24T15:52:48.792Z,2.30
2018-02-24T15:55:50.040Z,2.30
2018-02-24T15:58:51.268Z,2.40
2018-02-24T16:01:52.477Z,2.40
2018-02-24T16:04:53.680Z,2.40
2018-02-24T16:07:55.641Z,2.30
2018-02-24T16:10:56.873Z,2.30
2018-02-24T16:13:58.161Z,7.70
2018-02-24T16:16:59.449Z,5.50
2018-02-24T16:20:01.453Z,3.20
2018-02-24T16:23:02.678Z,3.20
2018-02-24T16:26:03.895Z,2.80
2018-02-24T16:29:05.120Z,2.60
2018-02-24T16:32:07.336Z,2.30
2018-02-24T16:35:08.580Z,2.20
2018-02-24T16:38:09.936Z,2.20
2018-02-24T16:41:11.886Z,2.10
2018-02-24T16:44:14.681Z,2.10
2018-02-24T16:47:16.848Z,2.10
2018-02-24T16:50:18.316Z,2.10
2018-02-24T16:53:19.819Z,2.10
2018-02-24T16:56:21.470Z,2.10
2018-02-24T16:59:24.946Z,2.00
2018-02-24T17:02:26.168Z,2.00
2018-02-24T17:05:28.270Z,2.80
2018-02-24T17:08:30.205Z,2.80
2018-02-24T17:11:32.267Z,2.80
2018-02-24T17:14:34.133Z,2.40
2018-02-24T17:17:36.726Z,2.20
2018-02-24T17:20:38.011Z,2.10
2018-02-24T17:23:40.216Z,2.10
2018-02-24T17:26:41.886Z,2.10
2018-02-24T17:29:44.344Z,1.90
2018-02-24T17:32:46.122Z,1.70
2018-02-24T17:35:47.365Z,1.90
2018-02-24T17:38:48.718Z,1.80
2018-02-24T17:41:50.950Z,1.70
2018-02-24T17:44:52.384Z,1.70
2018-02-24T17:47:53.641Z,1.70
2018-02-24T17:50:54.876Z,1.80
2018-02-24T17:53:56.640Z,1.80
2018-02-24T17:56:58.345Z,1.70
2018-02-24T18:00:00.341Z,1.50
2018-02-24T18:03:01.753Z,1.50
2018-02-24T18:06:03.540Z,1.50
2018-02-24T18:09:05.506Z,1.70
2018-02-24T18:12:08.331Z,1.70
2018-02-24T18:15:10.109Z,1.60
2018-02-24T18:18:11.881Z,1.60
2018-02-24T18:21:13.546Z,1.80
2018-02-24T18:24:15.267Z,1.70
2018-02-24T18:27:17.270Z,1.50
2018-02-24T18:30:19.029Z,1.50
2018-02-24T18:33:20.308Z,1.60
2018-02-24T18:36:21.617Z,1.60
2018-02-24T18:39:23.575Z,1.50
2018-02-24T18:42:24.801Z,1.50
2018-02-24T18:45:26.554Z,1.50
2018-02-24T18:48:27.844Z,1.60
2018-02-24T18:51:29.079Z,1.50
2018-02-24T18:58:35.628Z,1.50
2018-02-24T19:01:38.207Z,1.40
2018-02-24T19:04:39.559Z,1.30
2018-02-24T19:07:43.276Z,1.40
2018-02-24T19:10:44.540Z,1.40
2018-02-24T19:13:47.020Z,1.30
2018-02-24T19:16:48.280Z,1.30
2018-02-24T19:19:49.996Z,1.40
2018-02-24T19:22:51.256Z,1.30
2018-02-24T19:25:52.788Z,1.40
2018-02-24T19:28:54.006Z,1.50
2018-02-24T19:31:55.292Z,1.50
2018-02-24T19:34:56.717Z,1.50
2018-02-24T19:37:57.936Z,1.40
2018-02-24T19:40:59.561Z,1.20
2018-02-24T19:44:01.595Z,1.20
2018-02-24T19:47:03.435Z,1.20
2018-02-24T19:50:05.308Z,1.10
2018-02-24T19:53:06.561Z,1.10
2018-02-24T19:56:09.424Z,1.20
2018-02-24T19:59:10.983Z,1.20
2018-02-24T20:02:13.306Z,1.10
2018-02-24T20:05:15.705Z,1.10
2018-02-24T20:08:16.937Z,1.10
2018-02-24T20:11:19.874Z,1.10
2018-02-24T20:14:22.135Z,1.10
2018-02-24T20:17:23.498Z,1.20
2018-02-24T20:20:24.765Z,1.10
2018-02-24T20:23:27.185Z,1.00
2018-02-24T20:26:29.996Z,1.00
2018-02-24T20:29:31.288Z,0.90
2018-02-24T20:32:32.993Z,0.90
2018-02-24T20:35:35.293Z,1.00
2018-02-24T20:38:36.557Z,1.00
2018-02-24T20:41:37.789Z,0.80
2018-02-24T20:44:39.381Z,0.90
2018-02-24T20:47:41.897Z,1.10
2018-02-24T20:50:43.144Z,1.10
2018-02-24T20:53:44.947Z,1.10
2018-02-24T20:56:46.207Z,1.10
2018-02-24T20:59:47.877Z,1.10
2018-02-24T21:02:49.181Z,1.10
2018-02-24T21:05:51.328Z,1.70
2018-02-24T21:08:53.260Z,1.60
2018-02-24T21:11:55.788Z,1.30
2018-02-24T21:14:57.486Z,1.30
2018-02-24T21:17:58.731Z,1.30
2018-02-24T21:21:00.200Z,1.20
2018-02-24T21:24:01.447Z,1.20
2018-02-24T21:27:02.667Z,1.10
2018-02-24T21:30:04.738Z,1.10
2018-02-24T21:33:07.274Z,0.70
2018-02-24T21:36:08.665Z,0.70
2018-02-24T21:39:10.394Z,0.70
2018-02-24T21:42:11.907Z,0.80
2018-02-24T21:45:13.897Z,0.70
2018-02-24T21:48:15.375Z,0.70
2018-02-24T21:51:16.602Z,0.50
2018-02-24T21:54:17.836Z,0.60
2018-02-24T21:57:19.073Z,0.80
2018-02-24T22:00:20.301Z,0.80
2018-02-24T22:03:21.545Z,0.70
2018-02-24T22:06:23.494Z,0.70
2018-02-24T22:09:24.734Z,0.70
2018-02-24T22:12:25.969Z,0.80
2018-02-24T22:15:27.183Z,0.90
2018-02-24T22:18:28.428Z,0.90
2018-02-24T22:21:30.480Z,0.80
2018-02-24T22:24:31.752Z,0.80
2018-02-24T22:27:32.992Z,0.70
2018-02-24T22:30:34.294Z,0.70
2018-02-24T22:33:35.599Z,0.60
2018-02-24T22:36:36.872Z,0.50
2018-02-24T22:39:38.827Z,0.40
2018-02-24T22:42:40.184Z,0.40
2018-02-24T22:45:41.498Z,0.50
2018-02-24T22:48:49.190Z,0.50
2018-02-24T22:51:50.683Z,0.60
2018-02-24T22:54:53.095Z,0.40
2018-02-24T22:57:54.489Z,0.40
2018-02-24T23:00:56.521Z,0.40
2018-02-24T23:03:57.892Z,0.40
2018-02-24T23:06:59.154Z,0.40
2018-02-24T23:10:00.481Z,0.60
2018-02-24T23:13:02.479Z,0.40
2018-02-24T23:16:03.835Z,0.30
2018-02-24T23:19:06.008Z,0.40
2018-02-24T23:22:07.979Z,0.40
2018-02-24T23:25:09.298Z,0.40
2018-02-24T23:28:10.663Z,0.20
2018-02-24T23:31:12.051Z,0.30
2018-02-24T23:34:14.024Z,0.30
2018-02-24T23:37:15.289Z,0.30
2018-02-24T23:40:16.687Z,0.80
2018-02-24T23:43:18.767Z,0.30
2018-02-24T23:46:19.975Z,0.30
2018-02-24T23:49:21.185Z,0.30
2018-02-24T23:52:22.377Z,0.30
2018-02-24T23:55:24.405Z,0.20
2018-02-24T23:58:25.601Z,0.20
